sensor_id;sensor_type;location;lat;lon;timestamp;P1;durP1;ratioP1;P2;durP2;ratioP2
11488;SDS011;5801;50.804;12.638;2023-08-20T00:01:06;7.70;;;4.88;;
11488;SDS011;5801;50.804;12.638;2023-08-20T00:03:34;8.13;;;5.88;;
11488;SDS011;5801;50.804;12.638;2023-08-20T00:06:01;14.70;;;5.88;;
11488;SDS011;5801;50.804;12.638;2023-08-20T00:08:28;12.10;;;7.00;;
11488;SDS011;5801;50.804;12.638;2023-08-20T00:10:54;10.18;;;6.30;;
11488;SDS011;5801;50.804;12.638;2023-08-20T00:13:20;8.38;;;6.05;;
11488;SDS011;5801;50.804;12.638;2023-08-20T00:15:46;6.50;;;5.63;;
11488;SDS011;5801;50.804;12.638;2023-08-20T00:18:13;8.88;;;6.32;;
11488;SDS011;5801;50.804;12.638;2023-08-20T00:20:39;7.82;;;5.55;;
11488;SDS011;5801;50.804;12.638;2023-08-20T00:23:06;8.95;;;5.65;;
11488;SDS011;5801;50.804;12.638;2023-08-20T00:25:32;9.05;;;6.20;;
11488;SDS011;5801;50.804;12.638;2023-08-20T00:27:58;10.95;;;5.85;;
11488;SDS011;5801;50.804;12.638;2023-08-20T00:30:24;9.13;;;5.97;;
11488;SDS011;5801;50.804;12.638;2023-08-20T00:32:50;9.20;;;6.07;;
11488;SDS011;5801;50.804;12.638;2023-08-20T00:35:17;8.38;;;6.13;;
11488;SDS011;5801;50.804;12.638;2023-08-20T00:37:43;9.05;;;5.90;;
11488;SDS011;5801;50.804;12.638;2023-08-20T00:40:09;8.00;;;5.57;;
11488;SDS011;5801;50.804;12.638;2023-08-20T00:42:36;10.38;;;5.78;;
11488;SDS011;5801;50.804;12.638;2023-08-20T00:45:02;9.68;;;6.25;;
11488;SDS011;5801;50.804;12.638;2023-08-20T00:47:29;8.30;;;5.57;;
11488;SDS011;5801;50.804;12.638;2023-08-20T00:49:55;9.65;;;6.03;;
11488;SDS011;5801;50.804;12.638;2023-08-20T00:52:21;7.43;;;5.53;;
11488;SDS011;5801;50.804;12.638;2023-08-20T00:54:48;12.55;;;6.85;;
11488;SDS011;5801;50.804;12.638;2023-08-20T00:57:16;9.73;;;6.00;;
11488;SDS011;5801;50.804;12.638;2023-08-20T00:59:43;9.82;;;5.72;;
11488;SDS011;5801;50.804;12.638;2023-08-20T01:02:12;11.60;;;5.70;;
11488;SDS011;5801;50.804;12.638;2023-08-20T01:04:39;7.70;;;5.57;;
11488;SDS011;5801;50.804;12.638;2023-08-20T01:09:50;10.13;;;5.00;;
11488;SDS011;5801;50.804;12.638;2023-08-20T01:12:45;8.43;;;5.63;;
11488;SDS011;5801;50.804;12.638;2023-08-20T01:15:12;13.80;;;5.47;;
11488;SDS011;5801;50.804;12.638;2023-08-20T01:17:41;10.25;;;5.40;;
11488;SDS011;5801;50.804;12.638;2023-08-20T01:20:08;13.38;;;5.82;;
11488;SDS011;5801;50.804;12.638;2023-08-20T01:28:56;5.93;;;5.18;;
11488;SDS011;5801;50.804;12.638;2023-08-20T01:31:22;8.52;;;5.25;;
11488;SDS011;5801;50.804;12.638;2023-08-20T01:33:48;9.80;;;5.55;;
11488;SDS011;5801;50.804;12.638;2023-08-20T01:36:14;8.88;;;4.93;;
11488;SDS011;5801;50.804;12.638;2023-08-20T01:38:42;8.38;;;5.53;;
11488;SDS011;5801;50.804;12.638;2023-08-20T01:41:08;8.38;;;5.88;;
11488;SDS011;5801;50.804;12.638;2023-08-20T01:43:33;7.88;;;4.85;;
11488;SDS011;5801;50.804;12.638;2023-08-20T01:45:59;8.23;;;5.60;;
11488;SDS011;5801;50.804;12.638;2023-08-20T01:48:25;9.45;;;5.40;;
11488;SDS011;5801;50.804;12.638;2023-08-20T01:50:52;28.27;;;6.03;;
11488;SDS011;5801;50.804;12.638;2023-08-20T01:53:18;8.15;;;5.57;;
11488;SDS011;5801;50.804;12.638;2023-08-20T01:55:45;8.80;;;5.88;;
11488;SDS011;5801;50.804;12.638;2023-08-20T01:58:11;11.23;;;5.50;;
11488;SDS011;5801;50.804;12.638;2023-08-20T02:00:37;9.38;;;5.20;;
11488;SDS011;5801;50.804;12.638;2023-08-20T02:03:03;6.95;;;5.72;;
11488;SDS011;5801;50.804;12.638;2023-08-20T02:05:29;7.93;;;5.20;;
11488;SDS011;5801;50.804;12.638;2023-08-20T02:07:55;10.23;;;5.68;;
11488;SDS011;5801;50.804;12.638;2023-08-20T02:10:21;13.10;;;5.70;;
11488;SDS011;5801;50.804;12.638;2023-08-20T02:12:47;12.85;;;5.38;;
11488;SDS011;5801;50.804;12.638;2023-08-20T02:15:13;12.27;;;6.18;;
11488;SDS011;5801;50.804;12.638;2023-08-20T02:17:39;8.18;;;5.28;;
11488;SDS011;5801;50.804;12.638;2023-08-20T02:20:05;10.00;;;5.80;;
11488;SDS011;5801;50.804;12.638;2023-08-20T02:22:35;12.93;;;6.15;;
11488;SDS011;5801;50.804;12.638;2023-08-20T02:25:01;9.57;;;5.45;;
11488;SDS011;5801;50.804;12.638;2023-08-20T02:27:27;13.20;;;6.20;;
11488;SDS011;5801;50.804;12.638;2023-08-20T02:29:52;11.50;;;5.65;;
11488;SDS011;5801;50.804;12.638;2023-08-20T02:32:19;6.25;;;5.50;;
11488;SDS011;5801;50.804;12.638;2023-08-20T02:34:48;9.55;;;5.25;;
11488;SDS011;5801;50.804;12.638;2023-08-20T02:37:18;8.90;;;5.57;;
11488;SDS011;5801;50.804;12.638;2023-08-20T02:39:44;9.55;;;6.18;;
11488;SDS011;5801;50.804;12.638;2023-08-20T02:42:10;12.13;;;5.88;;
11488;SDS011;5801;50.804;12.638;2023-08-20T02:44:36;7.05;;;5.85;;
11488;SDS011;5801;50.804;12.638;2023-08-20T02:47:02;8.90;;;6.22;;
11488;SDS011;5801;50.804;12.638;2023-08-20T02:49:28;10.88;;;6.05;;
11488;SDS011;5801;50.804;12.638;2023-08-20T02:51:54;13.40;;;5.80;;
11488;SDS011;5801;50.804;12.638;2023-08-20T02:54:20;10.38;;;6.20;;
11488;SDS011;5801;50.804;12.638;2023-08-20T02:56:46;10.52;;;6.30;;
11488;SDS011;5801;50.804;12.638;2023-08-20T02:59:12;8.73;;;6.00;;
11488;SDS011;5801;50.804;12.638;2023-08-20T03:01:39;8.43;;;5.90;;
11488;SDS011;5801;50.804;12.638;2023-08-20T03:04:04;11.63;;;6.07;;
11488;SDS011;5801;50.804;12.638;2023-08-20T03:06:30;9.93;;;5.45;;
11488;SDS011;5801;50.804;12.638;2023-08-20T03:08:56;13.65;;;6.20;;
11488;SDS011;5801;50.804;12.638;2023-08-20T03:11:22;16.17;;;6.25;;
11488;SDS011;5801;50.804;12.638;2023-08-20T03:13:48;12.57;;;6.03;;
11488;SDS011;5801;50.804;12.638;2023-08-20T03:16:14;13.77;;;6.10;;
11488;SDS011;5801;50.804;12.638;2023-08-20T03:18:40;8.52;;;5.80;;
11488;SDS011;5801;50.804;12.638;2023-08-20T03:21:06;11.50;;;5.53;;
11488;SDS011;5801;50.804;12.638;2023-08-20T03:23:32;8.77;;;6.15;;
11488;SDS011;5801;50.804;12.638;2023-08-20T03:25:58;10.90;;;6.80;;
11488;SDS011;5801;50.804;12.638;2023-08-20T03:28:24;10.45;;;6.07;;
11488;SDS011;5801;50.804;12.638;2023-08-20T03:30:50;10.68;;;5.63;;
11488;SDS011;5801;50.804;12.638;2023-08-20T03:33:16;12.15;;;6.20;;
11488;SDS011;5801;50.804;12.638;2023-08-20T03:35:43;10.13;;;6.63;;
11488;SDS011;5801;50.804;12.638;2023-08-20T03:38:10;8.45;;;6.50;;
11488;SDS011;5801;50.804;12.638;2023-08-20T03:40:36;10.10;;;6.50;;
11488;SDS011;5801;50.804;12.638;2023-08-20T03:43:02;6.80;;;5.65;;
11488;SDS011;5801;50.804;12.638;2023-08-20T03:45:27;10.30;;;6.18;;
11488;SDS011;5801;50.804;12.638;2023-08-20T03:47:55;8.57;;;5.50;;
11488;SDS011;5801;50.804;12.638;2023-08-20T03:50:21;16.73;;;6.68;;
11488;SDS011;5801;50.804;12.638;2023-08-20T03:52:47;9.23;;;6.95;;
11488;SDS011;5801;50.804;12.638;2023-08-20T03:55:13;14.02;;;6.43;;
11488;SDS011;5801;50.804;12.638;2023-08-20T03:57:39;9.57;;;5.60;;
11488;SDS011;5801;50.804;12.638;2023-08-20T04:00:05;11.88;;;6.57;;
11488;SDS011;5801;50.804;12.638;2023-08-20T04:02:34;12.27;;;6.50;;
11488;SDS011;5801;50.804;12.638;2023-08-20T04:05:00;10.05;;;6.13;;
11488;SDS011;5801;50.804;12.638;2023-08-20T04:07:26;17.30;;;7.32;;
11488;SDS011;5801;50.804;12.638;2023-08-20T04:09:52;7.70;;;6.47;;
11488;SDS011;5801;50.804;12.638;2023-08-20T04:12:18;11.65;;;7.10;;
11488;SDS011;5801;50.804;12.638;2023-08-20T04:14:44;9.98;;;6.65;;
11488;SDS011;5801;50.804;12.638;2023-08-20T04:17:10;9.73;;;7.32;;
11488;SDS011;5801;50.804;12.638;2023-08-20T04:19:36;9.35;;;5.75;;
11488;SDS011;5801;50.804;12.638;2023-08-20T04:22:02;10.73;;;7.43;;
11488;SDS011;5801;50.804;12.638;2023-08-20T04:24:28;11.02;;;7.15;;
11488;SDS011;5801;50.804;12.638;2023-08-20T04:26:54;13.10;;;8.05;;
11488;SDS011;5801;50.804;12.638;2023-08-20T04:29:20;12.27;;;8.32;;
11488;SDS011;5801;50.804;12.638;2023-08-20T04:31:46;9.68;;;8.15;;
11488;SDS011;5801;50.804;12.638;2023-08-20T04:34:12;13.57;;;7.93;;
11488;SDS011;5801;50.804;12.638;2023-08-20T04:36:37;15.05;;;9.15;;
11488;SDS011;5801;50.804;12.638;2023-08-20T04:39:04;12.70;;;8.40;;
11488;SDS011;5801;50.804;12.638;2023-08-20T04:41:30;11.80;;;8.82;;
11488;SDS011;5801;50.804;12.638;2023-08-20T04:43:56;18.80;;;9.55;;
11488;SDS011;5801;50.804;12.638;2023-08-20T04:46:22;13.48;;;9.43;;
11488;SDS011;5801;50.804;12.638;2023-08-20T04:48:48;15.70;;;9.88;;
11488;SDS011;5801;50.804;12.638;2023-08-20T04:51:14;14.70;;;9.52;;
11488;SDS011;5801;50.804;12.638;2023-08-20T04:53:40;16.35;;;9.77;;
11488;SDS011;5801;50.804;12.638;2023-08-20T04:56:06;14.00;;;9.93;;
11488;SDS011;5801;50.804;12.638;2023-08-20T04:58:32;13.52;;;8.95;;
11488;SDS011;5801;50.804;12.638;2023-08-20T05:00:59;14.48;;;9.20;;
11488;SDS011;5801;50.804;12.638;2023-08-20T05:03:25;14.35;;;9.75;;
11488;SDS011;5801;50.804;12.638;2023-08-20T05:05:51;14.45;;;9.20;;
11488;SDS011;5801;50.804;12.638;2023-08-20T05:08:17;16.67;;;10.85;;
11488;SDS011;5801;50.804;12.638;2023-08-20T05:10:43;17.52;;;10.65;;
11488;SDS011;5801;50.804;12.638;2023-08-20T05:13:09;13.85;;;10.52;;
11488;SDS011;5801;50.804;12.638;2023-08-20T05:15:36;23.38;;;11.52;;
11488;SDS011;5801;50.804;12.638;2023-08-20T05:18:01;15.82;;;11.30;;
11488;SDS011;5801;50.804;12.638;2023-08-20T05:20:28;16.40;;;11.93;;
11488;SDS011;5801;50.804;12.638;2023-08-20T05:22:54;17.40;;;11.75;;
11488;SDS011;5801;50.804;12.638;2023-08-20T05:25:20;18.65;;;12.25;;
11488;SDS011;5801;50.804;12.638;2023-08-20T05:27:46;14.35;;;10.25;;
11488;SDS011;5801;50.804;12.638;2023-08-20T05:30:12;17.10;;;10.68;;
11488;SDS011;5801;50.804;12.638;2023-08-20T05:32:38;16.67;;;10.95;;
11488;SDS011;5801;50.804;12.638;2023-08-20T05:35:04;18.17;;;10.77;;
11488;SDS011;5801;50.804;12.638;2023-08-20T05:37:30;19.92;;;11.73;;
11488;SDS011;5801;50.804;12.638;2023-08-20T05:39:57;17.48;;;11.52;;
11488;SDS011;5801;50.804;12.638;2023-08-20T05:42:23;16.13;;;10.85;;
11488;SDS011;5801;50.804;12.638;2023-08-20T05:44:49;20.25;;;10.35;;
11488;SDS011;5801;50.804;12.638;2023-08-20T05:47:15;18.67;;;9.77;;
11488;SDS011;5801;50.804;12.638;2023-08-20T05:49:41;19.50;;;11.88;;
11488;SDS011;5801;50.804;12.638;2023-08-20T05:52:07;15.80;;;10.15;;
11488;SDS011;5801;50.804;12.638;2023-08-20T05:54:34;16.95;;;11.65;;
11488;SDS011;5801;50.804;12.638;2023-08-20T05:57:00;17.30;;;11.20;;
11488;SDS011;5801;50.804;12.638;2023-08-20T05:59:27;15.48;;;11.95;;
11488;SDS011;5801;50.804;12.638;2023-08-20T06:01:53;16.77;;;11.75;;
11488;SDS011;5801;50.804;12.638;2023-08-20T06:04:19;13.93;;;10.50;;
11488;SDS011;5801;50.804;12.638;2023-08-20T06:06:45;14.05;;;10.45;;
11488;SDS011;5801;50.804;12.638;2023-08-20T06:09:11;15.15;;;10.73;;
11488;SDS011;5801;50.804;12.638;2023-08-20T06:11:37;23.88;;;10.57;;
11488;SDS011;5801;50.804;12.638;2023-08-20T06:14:03;16.50;;;10.80;;
11488;SDS011;5801;50.804;12.638;2023-08-20T06:16:28;13.30;;;10.43;;
11488;SDS011;5801;50.804;12.638;2023-08-20T06:18:54;13.48;;;10.55;;
11488;SDS011;5801;50.804;12.638;2023-08-20T06:21:21;12.82;;;10.85;;
11488;SDS011;5801;50.804;12.638;2023-08-20T06:23:47;20.85;;;10.18;;
11488;SDS011;5801;50.804;12.638;2023-08-20T06:26:13;16.13;;;9.55;;
11488;SDS011;5801;50.804;12.638;2023-08-20T06:28:39;11.70;;;9.65;;
11488;SDS011;5801;50.804;12.638;2023-08-20T06:31:05;16.10;;;10.93;;
11488;SDS011;5801;50.804;12.638;2023-08-20T06:33:31;11.38;;;9.25;;
11488;SDS011;5801;50.804;12.638;2023-08-20T06:35:57;12.40;;;9.43;;
11488;SDS011;5801;50.804;12.638;2023-08-20T06:38:23;17.67;;;10.02;;
11488;SDS011;5801;50.804;12.638;2023-08-20T06:40:49;11.10;;;8.65;;
11488;SDS011;5801;50.804;12.638;2023-08-20T06:43:15;13.85;;;8.27;;
11488;SDS011;5801;50.804;12.638;2023-08-20T06:45:41;11.38;;;9.27;;
11488;SDS011;5801;50.804;12.638;2023-08-20T06:48:06;11.93;;;8.65;;
11488;SDS011;5801;50.804;12.638;2023-08-20T06:50:32;14.43;;;8.13;;
11488;SDS011;5801;50.804;12.638;2023-08-20T06:52:59;10.88;;;8.95;;
11488;SDS011;5801;50.804;12.638;2023-08-20T06:55:24;10.18;;;8.32;;
11488;SDS011;5801;50.804;12.638;2023-08-20T06:57:50;12.35;;;8.85;;
11488;SDS011;5801;50.804;12.638;2023-08-20T07:00:16;15.27;;;8.55;;
11488;SDS011;5801;50.804;12.638;2023-08-20T07:02:44;11.48;;;7.90;;
11488;SDS011;5801;50.804;12.638;2023-08-20T07:05:09;11.52;;;9.20;;
11488;SDS011;5801;50.804;12.638;2023-08-20T07:07:36;16.33;;;9.63;;
11488;SDS011;5801;50.804;12.638;2023-08-20T07:10:01;12.65;;;8.65;;
11488;SDS011;5801;50.804;12.638;2023-08-20T07:12:28;15.68;;;8.40;;
11488;SDS011;5801;50.804;12.638;2023-08-20T07:14:54;19.25;;;9.90;;
11488;SDS011;5801;50.804;12.638;2023-08-20T07:17:19;12.82;;;8.73;;
11488;SDS011;5801;50.804;12.638;2023-08-20T07:19:45;13.02;;;8.77;;
11488;SDS011;5801;50.804;12.638;2023-08-20T07:22:11;9.88;;;8.25;;
11488;SDS011;5801;50.804;12.638;2023-08-20T07:24:37;13.77;;;8.80;;
11488;SDS011;5801;50.804;12.638;2023-08-20T07:27:03;12.30;;;9.30;;
11488;SDS011;5801;50.804;12.638;2023-08-20T07:29:35;15.15;;;9.15;;
11488;SDS011;5801;50.804;12.638;2023-08-20T07:32:02;14.73;;;8.82;;
11488;SDS011;5801;50.804;12.638;2023-08-20T07:34:28;15.75;;;10.68;;
11488;SDS011;5801;50.804;12.638;2023-08-20T07:36:55;9.18;;;7.57;;
11488;SDS011;5801;50.804;12.638;2023-08-20T07:39:22;12.55;;;8.65;;
11488;SDS011;5801;50.804;12.638;2023-08-20T07:41:47;11.77;;;8.43;;
11488;SDS011;5801;50.804;12.638;2023-08-20T07:44:13;12.85;;;8.55;;
11488;SDS011;5801;50.804;12.638;2023-08-20T07:46:39;11.32;;;7.85;;
11488;SDS011;5801;50.804;12.638;2023-08-20T07:49:04;11.77;;;8.63;;
11488;SDS011;5801;50.804;12.638;2023-08-20T07:51:31;10.32;;;8.02;;
11488;SDS011;5801;50.804;12.638;2023-08-20T07:53:57;10.82;;;7.53;;
11488;SDS011;5801;50.804;12.638;2023-08-20T07:56:24;13.55;;;8.15;;
11488;SDS011;5801;50.804;12.638;2023-08-20T07:58:51;11.38;;;8.80;;
11488;SDS011;5801;50.804;12.638;2023-08-20T08:01:17;12.23;;;8.40;;
11488;SDS011;5801;50.804;12.638;2023-08-20T08:03:43;10.45;;;7.55;;
11488;SDS011;5801;50.804;12.638;2023-08-20T08:06:09;14.75;;;6.88;;
11488;SDS011;5801;50.804;12.638;2023-08-20T08:08:35;13.68;;;8.75;;
11488;SDS011;5801;50.804;12.638;2023-08-20T08:11:03;15.90;;;7.90;;
11488;SDS011;5801;50.804;12.638;2023-08-20T08:13:29;11.25;;;7.85;;
11488;SDS011;5801;50.804;12.638;2023-08-20T08:15:54;11.07;;;8.02;;
11488;SDS011;5801;50.804;12.638;2023-08-20T08:18:20;11.40;;;7.90;;
11488;SDS011;5801;50.804;12.638;2023-08-20T08:20:46;9.82;;;8.02;;
11488;SDS011;5801;50.804;12.638;2023-08-20T08:23:12;11.43;;;8.10;;
11488;SDS011;5801;50.804;12.638;2023-08-20T08:25:38;13.68;;;7.72;;
11488;SDS011;5801;50.804;12.638;2023-08-20T08:28:05;13.45;;;7.53;;
11488;SDS011;5801;50.804;12.638;2023-08-20T08:30:31;9.90;;;7.40;;
11488;SDS011;5801;50.804;12.638;2023-08-20T08:32:57;11.27;;;7.90;;
11488;SDS011;5801;50.804;12.638;2023-08-20T08:35:23;14.23;;;7.90;;
11488;SDS011;5801;50.804;12.638;2023-08-20T08:37:49;9.93;;;8.32;;
11488;SDS011;5801;50.804;12.638;2023-08-20T08:40:15;9.80;;;7.75;;
11488;SDS011;5801;50.804;12.638;2023-08-20T08:42:41;10.70;;;6.82;;
11488;SDS011;5801;50.804;12.638;2023-08-20T08:45:10;15.52;;;8.35;;
11488;SDS011;5801;50.804;12.638;2023-08-20T08:47:36;12.85;;;7.55;;
11488;SDS011;5801;50.804;12.638;2023-08-20T08:50:04;8.68;;;7.20;;
11488;SDS011;5801;50.804;12.638;2023-08-20T08:52:31;12.30;;;7.80;;
11488;SDS011;5801;50.804;12.638;2023-08-20T08:54:57;8.73;;;6.88;;
11488;SDS011;5801;50.804;12.638;2023-08-20T08:57:23;8.63;;;7.13;;
11488;SDS011;5801;50.804;12.638;2023-08-20T08:59:49;12.15;;;6.97;;
11488;SDS011;5801;50.804;12.638;2023-08-20T09:02:16;9.00;;;6.43;;
11488;SDS011;5801;50.804;12.638;2023-08-20T09:04:43;9.27;;;6.78;;
11488;SDS011;5801;50.804;12.638;2023-08-20T09:07:13;10.63;;;6.70;;
11488;SDS011;5801;50.804;12.638;2023-08-20T09:09:43;8.45;;;6.70;;
11488;SDS011;5801;50.804;12.638;2023-08-20T09:12:16;7.85;;;6.68;;
11488;SDS011;5801;50.804;12.638;2023-08-20T09:14:50;9.90;;;7.63;;
11488;SDS011;5801;50.804;12.638;2023-08-20T09:17:17;11.13;;;8.00;;
11488;SDS011;5801;50.804;12.638;2023-08-20T09:19:44;12.35;;;7.50;;
11488;SDS011;5801;50.804;12.638;2023-08-20T09:22:11;10.40;;;7.68;;
11488;SDS011;5801;50.804;12.638;2023-08-20T09:27:13;16.70;;;9.13;;
11488;SDS011;5801;50.804;12.638;2023-08-20T09:29:46;10.68;;;8.98;;
11488;SDS011;5801;50.804;12.638;2023-08-20T09:32:17;10.77;;;7.45;;
11488;SDS011;5801;50.804;12.638;2023-08-20T09:34:45;11.93;;;8.15;;
11488;SDS011;5801;50.804;12.638;2023-08-20T09:37:14;11.20;;;7.85;;
11488;SDS011;5801;50.804;12.638;2023-08-20T09:39:42;11.88;;;8.05;;
11488;SDS011;5801;50.804;12.638;2023-08-20T09:42:08;11.60;;;8.50;;
11488;SDS011;5801;50.804;12.638;2023-08-20T09:44:35;9.30;;;7.50;;
11488;SDS011;5801;50.804;12.638;2023-08-20T09:47:10;10.15;;;7.82;;
11488;SDS011;5801;50.804;12.638;2023-08-20T09:49:41;9.02;;;7.35;;
11488;SDS011;5801;50.804;12.638;2023-08-20T09:52:10;13.25;;;7.20;;
11488;SDS011;5801;50.804;12.638;2023-08-20T09:57:37;10.70;;;7.10;;
11488;SDS011;5801;50.804;12.638;2023-08-20T10:00:09;10.38;;;7.07;;
11488;SDS011;5801;50.804;12.638;2023-08-20T10:02:36;10.93;;;7.35;;
11488;SDS011;5801;50.804;12.638;2023-08-20T10:05:06;9.63;;;7.75;;
11488;SDS011;5801;50.804;12.638;2023-08-20T10:07:33;11.57;;;7.53;;
11488;SDS011;5801;50.804;12.638;2023-08-20T10:10:01;11.25;;;7.82;;
11488;SDS011;5801;50.804;12.638;2023-08-20T10:12:30;8.88;;;7.05;;
11488;SDS011;5801;50.804;12.638;2023-08-20T10:14:56;12.48;;;7.78;;
11488;SDS011;5801;50.804;12.638;2023-08-20T10:17:23;11.57;;;7.38;;
11488;SDS011;5801;50.804;12.638;2023-08-20T10:19:51;8.57;;;6.43;;
11488;SDS011;5801;50.804;12.638;2023-08-20T10:22:18;8.23;;;6.43;;
11488;SDS011;5801;50.804;12.638;2023-08-20T10:24:48;7.32;;;6.57;;
11488;SDS011;5801;50.804;12.638;2023-08-20T10:27:35;10.32;;;6.65;;
11488;SDS011;5801;50.804;12.638;2023-08-20T10:30:13;10.13;;;7.53;;
11488;SDS011;5801;50.804;12.638;2023-08-20T10:35:11;10.02;;;7.57;;
11488;SDS011;5801;50.804;12.638;2023-08-20T10:37:40;8.10;;;7.10;;
11488;SDS011;5801;50.804;12.638;2023-08-20T10:43:26;11.50;;;7.22;;
11488;SDS011;5801;50.804;12.638;2023-08-20T10:46:02;7.32;;;6.63;;
11488;SDS011;5801;50.804;12.638;2023-08-20T10:48:33;8.35;;;6.88;;
11488;SDS011;5801;50.804;12.638;2023-08-20T10:51:09;8.82;;;6.82;;
11488;SDS011;5801;50.804;12.638;2023-08-20T10:59:26;10.68;;;6.47;;
11488;SDS011;5801;50.804;12.638;2023-08-20T11:01:55;10.18;;;6.72;;
11488;SDS011;5801;50.804;12.638;2023-08-20T11:04:28;9.25;;;6.95;;
11488;SDS011;5801;50.804;12.638;2023-08-20T11:06:57;7.30;;;6.38;;
11488;SDS011;5801;50.804;12.638;2023-08-20T11:09:24;8.73;;;6.50;;
11488;SDS011;5801;50.804;12.638;2023-08-20T11:11:52;11.52;;;6.05;;
11488;SDS011;5801;50.804;12.638;2023-08-20T11:14:19;7.65;;;6.10;;
11488;SDS011;5801;50.804;12.638;2023-08-20T11:16:47;10.32;;;6.40;;
11488;SDS011;5801;50.804;12.638;2023-08-20T11:19:14;8.98;;;6.30;;
11488;SDS011;5801;50.804;12.638;2023-08-20T11:21:44;6.97;;;6.13;;
11488;SDS011;5801;50.804;12.638;2023-08-20T11:24:11;6.88;;;5.53;;
11488;SDS011;5801;50.804;12.638;2023-08-20T11:26:40;6.72;;;5.70;;
11488;SDS011;5801;50.804;12.638;2023-08-20T11:29:11;6.63;;;5.95;;
11488;SDS011;5801;50.804;12.638;2023-08-20T11:31:38;6.85;;;5.68;;
11488;SDS011;5801;50.804;12.638;2023-08-20T11:34:05;11.77;;;5.60;;
11488;SDS011;5801;50.804;12.638;2023-08-20T11:36:32;7.93;;;5.85;;
11488;SDS011;5801;50.804;12.638;2023-08-20T11:38:59;6.78;;;5.65;;
11488;SDS011;5801;50.804;12.638;2023-08-20T11:41:25;10.52;;;5.65;;
11488;SDS011;5801;50.804;12.638;2023-08-20T11:43:51;9.27;;;6.32;;
11488;SDS011;5801;50.804;12.638;2023-08-20T11:46:19;9.95;;;5.43;;
11488;SDS011;5801;50.804;12.638;2023-08-20T11:49:02;6.32;;;5.72;;
11488;SDS011;5801;50.804;12.638;2023-08-20T11:51:35;7.57;;;5.90;;
11488;SDS011;5801;50.804;12.638;2023-08-20T11:54:02;7.90;;;5.85;;
11488;SDS011;5801;50.804;12.638;2023-08-20T11:56:32;7.20;;;6.05;;
11488;SDS011;5801;50.804;12.638;2023-08-20T11:59:03;9.13;;;7.00;;
11488;SDS011;5801;50.804;12.638;2023-08-20T12:01:32;8.50;;;5.65;;
11488;SDS011;5801;50.804;12.638;2023-08-20T12:03:59;8.52;;;6.82;;
11488;SDS011;5801;50.804;12.638;2023-08-20T12:06:29;6.88;;;5.90;;
11488;SDS011;5801;50.804;12.638;2023-08-20T12:08:56;8.48;;;6.63;;
11488;SDS011;5801;50.804;12.638;2023-08-20T12:11:29;8.75;;;6.35;;
11488;SDS011;5801;50.804;12.638;2023-08-20T12:13:55;10.48;;;6.70;;
11488;SDS011;5801;50.804;12.638;2023-08-20T12:16:22;11.20;;;6.93;;
11488;SDS011;5801;50.804;12.638;2023-08-20T12:18:49;7.55;;;6.43;;
11488;SDS011;5801;50.804;12.638;2023-08-20T12:21:16;8.75;;;6.03;;
11488;SDS011;5801;50.804;12.638;2023-08-20T12:23:41;9.00;;;7.00;;
11488;SDS011;5801;50.804;12.638;2023-08-20T12:26:07;9.38;;;6.68;;
11488;SDS011;5801;50.804;12.638;2023-08-20T12:28:33;8.63;;;6.40;;
11488;SDS011;5801;50.804;12.638;2023-08-20T12:31:00;13.18;;;6.72;;
11488;SDS011;5801;50.804;12.638;2023-08-20T12:33:26;7.45;;;6.65;;
11488;SDS011;5801;50.804;12.638;2023-08-20T12:35:53;8.30;;;7.00;;
11488;SDS011;5801;50.804;12.638;2023-08-20T12:38:20;8.48;;;6.38;;
11488;SDS011;5801;50.804;12.638;2023-08-20T12:40:46;8.70;;;6.78;;
11488;SDS011;5801;50.804;12.638;2023-08-20T12:43:12;8.63;;;6.53;;
11488;SDS011;5801;50.804;12.638;2023-08-20T12:45:39;7.10;;;6.03;;
11488;SDS011;5801;50.804;12.638;2023-08-20T12:48:05;7.75;;;6.72;;
11488;SDS011;5801;50.804;12.638;2023-08-20T12:50:32;10.23;;;7.03;;
11488;SDS011;5801;50.804;12.638;2023-08-20T12:52:58;8.38;;;6.15;;
11488;SDS011;5801;50.804;12.638;2023-08-20T12:55:24;9.32;;;6.60;;
11488;SDS011;5801;50.804;12.638;2023-08-20T12:57:54;7.75;;;6.22;;
11488;SDS011;5801;50.804;12.638;2023-08-20T13:00:22;7.60;;;6.53;;
11488;SDS011;5801;50.804;12.638;2023-08-20T13:02:53;7.88;;;7.07;;
11488;SDS011;5801;50.804;12.638;2023-08-20T13:05:20;11.60;;;6.93;;
11488;SDS011;5801;50.804;12.638;2023-08-20T13:07:47;9.48;;;7.05;;
11488;SDS011;5801;50.804;12.638;2023-08-20T13:10:13;11.52;;;6.60;;
11488;SDS011;5801;50.804;12.638;2023-08-20T13:12:41;6.90;;;5.97;;
11488;SDS011;5801;50.804;12.638;2023-08-20T13:15:12;8.98;;;6.80;;
11488;SDS011;5801;50.804;12.638;2023-08-20T13:17:39;10.13;;;6.90;;
11488;SDS011;5801;50.804;12.638;2023-08-20T13:20:05;9.65;;;7.78;;
11488;SDS011;5801;50.804;12.638;2023-08-20T13:22:33;7.85;;;6.30;;
11488;SDS011;5801;50.804;12.638;2023-08-20T13:24:59;7.95;;;6.82;;
11488;SDS011;5801;50.804;12.638;2023-08-20T13:27:25;9.80;;;6.47;;
11488;SDS011;5801;50.804;12.638;2023-08-20T13:29:50;7.43;;;6.70;;
11488;SDS011;5801;50.804;12.638;2023-08-20T13:32:16;10.68;;;6.55;;
11488;SDS011;5801;50.804;12.638;2023-08-20T13:34:42;10.25;;;6.97;;
11488;SDS011;5801;50.804;12.638;2023-08-20T13:37:08;10.55;;;7.65;;
11488;SDS011;5801;50.804;12.638;2023-08-20T13:39:34;9.52;;;6.70;;
11488;SDS011;5801;50.804;12.638;2023-08-20T13:42:00;9.15;;;6.30;;
11488;SDS011;5801;50.804;12.638;2023-08-20T13:44:27;7.45;;;6.72;;
11488;SDS011;5801;50.804;12.638;2023-08-20T13:46:53;10.32;;;6.85;;
11488;SDS011;5801;50.804;12.638;2023-08-20T13:49:19;9.00;;;6.82;;
11488;SDS011;5801;50.804;12.638;2023-08-20T13:51:45;7.93;;;6.93;;
11488;SDS011;5801;50.804;12.638;2023-08-20T13:54:11;7.68;;;6.55;;
11488;SDS011;5801;50.804;12.638;2023-08-20T13:56:37;10.85;;;6.75;;
11488;SDS011;5801;50.804;12.638;2023-08-20T13:59:03;9.00;;;6.82;;
11488;SDS011;5801;50.804;12.638;2023-08-20T14:01:29;6.70;;;5.75;;
11488;SDS011;5801;50.804;12.638;2023-08-20T14:03:55;8.32;;;6.55;;
11488;SDS011;5801;50.804;12.638;2023-08-20T14:06:21;11.63;;;6.70;;
11488;SDS011;5801;50.804;12.638;2023-08-20T14:08:47;8.40;;;6.97;;
11488;SDS011;5801;50.804;12.638;2023-08-20T14:11:13;9.48;;;6.63;;
11488;SDS011;5801;50.804;12.638;2023-08-20T14:13:39;8.30;;;6.85;;
11488;SDS011;5801;50.804;12.638;2023-08-20T14:16:07;6.93;;;6.22;;
11488;SDS011;5801;50.804;12.638;2023-08-20T14:18:33;13.82;;;6.78;;
11488;SDS011;5801;50.804;12.638;2023-08-20T14:20:59;12.07;;;6.55;;
11488;SDS011;5801;50.804;12.638;2023-08-20T14:23:25;9.38;;;7.13;;
11488;SDS011;5801;50.804;12.638;2023-08-20T14:25:51;9.25;;;6.70;;
11488;SDS011;5801;50.804;12.638;2023-08-20T14:28:19;9.05;;;6.95;;
11488;SDS011;5801;50.804;12.638;2023-08-20T14:30:45;11.43;;;5.93;;
11488;SDS011;5801;50.804;12.638;2023-08-20T14:33:11;8.85;;;7.03;;
11488;SDS011;5801;50.804;12.638;2023-08-20T14:35:37;7.43;;;6.53;;
11488;SDS011;5801;50.804;12.638;2023-08-20T14:38:03;6.63;;;5.93;;
11488;SDS011;5801;50.804;12.638;2023-08-20T14:40:30;7.20;;;6.47;;
11488;SDS011;5801;50.804;12.638;2023-08-20T14:42:56;13.07;;;6.75;;
11488;SDS011;5801;50.804;12.638;2023-08-20T14:45:22;10.98;;;5.90;;
11488;SDS011;5801;50.804;12.638;2023-08-20T14:47:48;8.13;;;6.70;;
11488;SDS011;5801;50.804;12.638;2023-08-20T14:50:14;10.20;;;6.00;;
11488;SDS011;5801;50.804;12.638;2023-08-20T14:52:40;9.18;;;6.30;;
11488;SDS011;5801;50.804;12.638;2023-08-20T14:55:06;10.38;;;6.07;;
11488;SDS011;5801;50.804;12.638;2023-08-20T14:57:34;8.32;;;6.57;;
11488;SDS011;5801;50.804;12.638;2023-08-20T15:00:00;8.75;;;6.35;;
11488;SDS011;5801;50.804;12.638;2023-08-20T15:02:28;8.70;;;6.10;;